Time;durP1;ratioP1;P1;durP2;ratioP2;P2;SDS_P1;SDS_P2;PMS_P1;PMS_P2;Temp;Humidity;BMP_temperature;BMP_pressure;BME280_temperature;BME280_humidity;BME280_pressure;Samples;Min_cycle;Max_cycle;Signal;HPM_P1;HPM_P2
2022/01/29 00:00:00;;;;;;;19.37;6.23;;;4.50;1.00;;;;;;6283984;28;20327;-57
2022/01/29 00:03:04;;;;;;;17.93;6.43;;;4.50;1.00;;;;;;6278252;28;20453;-57
2022/01/29 00:06:07;;;;;;;17.47;6.57;;;4.20;1.00;;;;;;6282232;28;20256;-57
2022/01/29 00:09:14;;;;;;;9.87;6.13;;;4.50;1.00;;;;;;6280547;28;20225;-58
2022/01/29 00:12:16;;;;;;;29.83;7.13;;;4.50;1.00;;;;;;6274733;28;20749;-56
2022/01/29 00:15:20;;;;;;;14.87;6.40;;;4.50;1.00;;;;;;6278493;28;20240;-56
2022/01/29 00:18:24;;;;;;;14.67;7.00;;;4.30;1.00;;;;;;6277848;28;20264;-56
2022/01/29 00:21:27;;;;;;;20.43;6.93;;;4.50;1.00;;;;;;6264088;28;20599;-55
2022/01/29 00:24:31;;;;;;;15.87;6.27;;;4.40;1.00;;;;;;6258745;28;20249;-56
2022/01/29 00:27:35;;;;;;;19.03;6.90;;;4.30;1.00;;;;;;6275938;28;20244;-57
2022/01/29 00:30:42;;;;;;;9.83;6.17;;;4.30;1.00;;;;;;6288235;28;20725;-55
2022/01/29 00:33:46;;;;;;;17.87;6.97;;;4.20;1.00;;;;;;6289197;28;20241;-56
2022/01/29 00:36:49;;;;;;;18.30;6.73;;;4.20;1.00;;;;;;6287286;28;20720;-56
2022/01/29 00:39:52;;;;;;;16.70;6.50;;;4.40;1.00;;;;;;6288710;28;20655;-57
2022/01/29 00:42:55;;;;;;;13.20;6.40;;;4.20;1.00;;;;;;6286255;28;20312;-57
2022/01/29 00:45:57;;;;;;;12.90;5.73;;;4.40;1.00;;;;;;6288900;28;20741;-56
2022/01/29 00:49:01;;;;;;;18.50;5.87;;;4.50;1.00;;;;;;6273584;28;20278;-57
2022/01/29 00:52:05;;;;;;;16.40;6.63;;;4.40;1.00;;;;;;6282186;28;20226;-58
2022/01/29 00:55:09;;;;;;;17.50;7.20;;;4.50;1.00;;;;;;6286456;28;20240;-57
2022/01/29 00:58:12;;;;;;;19.70;6.60;;;4.50;1.00;;;;;;6288792;28;20768;-57
2022/01/29 01:01:14;;;;;;;20.90;6.60;;;4.20;1.00;;;;;;6287225;28;20245;-56
2022/01/29 01:04:19;;;;;;;16.20;6.33;;;4.50;1.00;;;;;;6288043;28;20352;-57
2022/01/29 01:07:21;;;;;;;11.87;6.20;;;4.40;1.00;;;;;;6285495;28;20355;-56
2022/01/29 01:10:24;;;;;;;17.20;5.77;;;4.40;1.00;;;;;;6284777;28;20234;-56
2022/01/29 01:13:27;;;;;;;17.80;6.53;;;4.30;1.00;;;;;;6283180;28;20240;-56
2022/01/29 01:16:30;;;;;;;15.60;6.87;;;4.10;1.00;;;;;;6284080;28;20470;-56
2022/01/29 01:19:34;;;;;;;18.23;6.30;;;4.30;1.00;;;;;;6278025;28;20252;-57
2022/01/29 01:22:37;;;;;;;13.17;6.60;;;4.40;1.00;;;;;;6263840;28;20261;-57
2022/01/29 01:25:40;;;;;;;21.63;6.93;;;4.50;1.00;;;;;;6262623;28;20237;-56
2022/01/29 01:28:43;;;;;;;16.47;6.57;;;4.20;1.00;;;;;;6261918;28;20242;-56
2022/01/29 01:31:46;;;;;;;21.30;6.27;;;4.30;1.00;;;;;;6262532;28;20758;-57
2022/01/29 01:34:53;;;;;;;18.70;6.60;;;4.10;1.00;;;;;;6287239;28;20233;-58
2022/01/29 01:38:00;;;;;;;16.77;6.10;;;4.30;1.00;;;;;;6286710;28;20284;-56
2022/01/29 01:41:08;;;;;;;16.83;6.10;;;3.90;1.00;;;;;;6288333;28;20283;-56
2022/01/29 01:44:13;;;;;;;18.13;6.53;;;4.20;1.00;;;;;;6264670;28;20796;-56
2022/01/29 01:47:17;;;;;;;15.53;6.70;;;4.10;1.00;;;;;;6265147;28;20230;-57
2022/01/29 01:50:22;;;;;;;18.73;6.33;;;4.20;1.00;;;;;;6286706;28;20290;-56
2022/01/29 01:53:25;;;;;;;19.53;6.70;;;4.00;1.00;;;;;;6288592;28;20230;-57
2022/01/29 01:56:28;;;;;;;17.07;6.13;;;4.30;1.00;;;;;;6287062;28;20491;-56
2022/01/29 01:59:31;;;;;;;15.30;6.43;;;4.00;1.00;;;;;;6271384;28;20264;-57
2022/01/29 02:02:33;;;;;;;15.20;5.77;;;4.50;1.00;;;;;;6268511;28;20677;-56
2022/01/29 02:05:38;;;;;;;17.40;6.30;;;4.40;1.00;;;;;;6287383;28;20257;-56
2022/01/29 02:08:41;;;;;;;18.10;6.60;;;4.30;1.00;;;;;;6283521;28;20283;-57
2022/01/29 02:11:50;;;;;;;12.17;5.63;;;4.20;1.00;;;;;;6286241;28;20288;-57
2022/01/29 02:14:53;;;;;;;23.27;6.90;;;4.20;1.00;;;;;;6282892;28;20266;-55
2022/01/29 02:17:56;;;;;;;13.17;6.63;;;3.70;1.00;;;;;;6282012;28;20298;-56
2022/01/29 02:21:03;;;;;;;23.90;6.60;;;4.00;1.00;;;;;;6286541;28;20314;-56
2022/01/29 02:24:07;;;;;;;11.03;6.17;;;4.20;1.00;;;;;;6286256;28;20340;-56
2022/01/29 02:27:10;;;;;;;18.77;6.67;;;4.30;1.00;;;;;;6283643;28;20264;-57
2022/01/29 02:30:13;;;;;;;20.00;6.83;;;4.30;1.00;;;;;;6285812;28;20322;-56
2022/01/29 02:33:17;;;;;;;19.83;6.87;;;4.40;1.00;;;;;;6279676;28;20290;-56
2022/01/29 02:36:20;;;;;;;12.30;6.73;;;4.10;1.00;;;;;;6286597;28;20229;-56
2022/01/29 02:39:25;;;;;;;18.23;6.93;;;4.10;1.00;;;;;;6286117;28;20617;-57
2022/01/29 02:42:27;;;;;;;14.67;7.37;;;3.90;1.00;;;;;;6283922;28;20243;-56
2022/01/29 02:45:30;;;;;;;15.73;6.70;;;3.90;1.00;;;;;;6285472;28;20502;-56
2022/01/29 02:48:33;;;;;;;18.33;7.53;;;3.90;1.00;;;;;;6284800;28;20244;-56
2022/01/29 02:51:43;;;;;;;18.87;6.90;;;4.10;1.00;;;;;;6279565;28;20275;-56
2022/01/29 02:54:47;;;;;;;16.23;6.50;;;3.40;1.00;;;;;;6282079;28;20312;-57
2022/01/29 02:57:49;;;;;;;15.90;6.53;;;3.90;1.00;;;;;;6285701;28;20244;-56
2022/01/29 03:00:53;;;;;;;12.70;6.30;;;3.80;1.00;;;;;;6285518;28;20256;-56
2022/01/29 03:03:56;;;;;;;7.33;5.57;;;4.20;1.00;;;;;;6284369;28;20233;-55
2022/01/29 03:06:58;;;;;;;13.30;6.70;;;4.00;1.30;;;;;;6285174;28;20320;-56
2022/01/29 03:10:03;;;;;;;16.03;7.20;;;4.00;3.20;;;;;;6285793;28;20467;-56
2022/01/29 03:13:06;;;;;;;13.80;6.57;;;3.70;6.00;;;;;;6283689;28;20237;-56
2022/01/29 03:16:08;;;;;;;15.20;6.80;;;4.00;6.40;;;;;;6280177;28;20779;-56
2022/01/29 03:19:11;;;;;;;15.63;6.27;;;4.10;5.50;;;;;;6284699;28;20399;-58
2022/01/29 03:22:14;;;;;;;13.40;6.77;;;4.00;6.20;;;;;;6272665;28;20315;-57
2022/01/29 03:25:18;;;;;;;17.17;7.70;;;3.80;7.00;;;;;;6261896;28;20332;-55
2022/01/29 03:28:21;;;;;;;25.37;6.87;;;4.10;8.00;;;;;;6263404;28;20264;-56
2022/01/29 03:31:26;;;;;;;20.27;7.13;;;3.70;8.60;;;;;;6280057;28;20923;-56
2022/01/29 03:34:29;;;;;;;18.23;7.73;;;3.90;8.90;;;;;;6282307;28;20452;-55
2022/01/29 03:37:32;;;;;;;20.83;7.37;;;3.80;9.60;;;;;;6284003;28;20346;-56
2022/01/29 03:40:36;;;;;;;20.37;7.50;;;3.70;10.10;;;;;;6283896;28;20371;-57
2022/01/29 03:43:45;;;;;;;13.37;6.80;;;3.70;11.50;;;;;;6269437;28;20251;-55
2022/01/29 03:46:48;;;;;;;21.83;6.73;;;3.70;11.50;;;;;;6283615;28;20264;-57
2022/01/29 03:49:51;;;;;;;14.27;7.03;;;3.80;12.20;;;;;;6283061;28;20257;-57
2022/01/29 03:52:54;;;;;;;18.20;7.90;;;3.80;12.50;;;;;;6270446;28;20249;-57
2022/01/29 03:55:58;;;;;;;17.07;7.67;;;3.80;14.30;;;;;;6258944;28;20749;-57
2022/01/29 03:59:01;;;;;;;16.57;8.27;;;3.80;14.10;;;;;;6258382;28;20249;-56
2022/01/29 04:02:04;;;;;;;19.80;8.20;;;4.00;16.00;;;;;;6259894;28;20299;-56
2022/01/29 04:05:08;;;;;;;18.93;7.60;;;3.80;17.20;;;;;;6283907;28;20687;-57
2022/01/29 04:08:15;;;;;;;14.23;8.17;;;3.90;19.80;;;;;;6283804;28;20221;-55
2022/01/29 04:11:21;;;;;;;23.30;8.57;;;3.60;19.90;;;;;;6267712;28;20237;-56
2022/01/29 04:14:31;;;;;;;16.60;7.20;;;3.80;21.00;;;;;;6259520;28;20241;-57
2022/01/29 04:17:34;;;;;;;13.80;7.73;;;3.70;21.30;;;;;;6259161;28;20230;-56
2022/01/29 04:20:36;;;;;;;23.93;8.57;;;3.70;22.00;;;;;;6258681;28;20250;-55
2022/01/29 04:23:39;;;;;;;16.43;8.80;;;3.60;22.00;;;;;;6258476;28;20573;-56
2022/01/29 04:26:44;;;;;;;16.50;8.97;;;3.60;23.40;;;;;;6263616;28;20240;-56
2022/01/29 04:29:55;;;;;;;17.80;8.90;;;3.90;23.00;;;;;;6283137;28;20251;-56
2022/01/29 04:33:03;;;;;;;23.93;9.03;;;4.10;24.00;;;;;;6257901;28;20318;-55
2022/01/29 04:36:06;;;;;;;14.40;9.63;;;3.90;25.80;;;;;;6267999;28;20237;-55
2022/01/29 04:39:09;;;;;;;18.93;10.00;;;3.80;26.00;;;;;;6278637;28;20645;-57
2022/01/29 04:42:13;;;;;;;23.70;10.03;;;3.80;26.60;;;;;;6269730;28;20635;-57
2022/01/29 04:45:16;;;;;;;23.80;10.23;;;3.90;27.00;;;;;;6273185;28;20616;-56
2022/01/29 04:48:19;;;;;;;22.23;10.67;;;3.70;27.10;;;;;;6272800;28;20319;-55
2022/01/29 04:51:22;;;;;;;17.70;9.90;;;3.50;27.80;;;;;;6274535;28;20229;-56
2022/01/29 04:54:25;;;;;;;34.00;11.93;;;3.80;27.80;;;;;;6282503;28;20257;-56
2022/01/29 04:57:29;;;;;;;24.43;11.33;;;3.80;27.50;;;;;;6279058;28;20268;-55
2022/01/29 05:00:33;;;;;;;20.13;11.03;;;3.60;27.70;;;;;;6283750;28;20240;-56
2022/01/29 05:03:36;;;;;;;22.47;11.30;;;3.90;28.10;;;;;;6279512;28;20464;-57
2022/01/29 05:06:39;;;;;;;17.90;10.40;;;3.80;28.70;;;;;;6280959;28;20695;-57
2022/01/29 05:09:42;;;;;;;20.27;11.40;;;4.10;28.10;;;;;;6282089;28;20236;-57
2022/01/29 05:12:51;;;;;;;22.97;11.60;;;3.60;27.30;;;;;;6281946;28;20810;-57
2022/01/29 05:16:23;;;;;;;21.70;11.43;;;3.90;27.10;;;;;;6286365;28;20225;-58
2022/01/29 05:29:41;;;;;;;21.90;12.07;;;4.20;29.40;;;;;;6277089;28;20316;-57
2022/01/29 05:32:43;;;;;;;19.53;11.07;;;4.10;28.90;;;;;;6282670;28;20336;-55
2022/01/29 05:35:46;;;;;;;20.67;11.37;;;4.20;29.00;;;;;;6284952;28;20827;-55
2022/01/29 05:38:49;;;;;;;21.43;11.60;;;3.80;28.90;;;;;;6283787;28;20441;-55
2022/01/29 05:41:53;;;;;;;22.00;12.57;;;3.90;28.50;;;;;;6283506;28;20242;-56
2022/01/29 05:44:57;;;;;;;18.17;11.30;;;3.90;28.80;;;;;;6285782;28;20729;-56
2022/01/29 05:48:00;;;;;;;20.40;11.73;;;4.10;28.90;;;;;;6285216;28;20229;-55
2022/01/29 05:51:03;;;;;;;19.70;12.37;;;4.10;28.70;;;;;;6279695;28;20375;-56
2022/01/29 05:54:06;;;;;;;16.90;11.07;;;3.90;29.70;;;;;;6286412;28;20252;-56
2022/01/29 05:57:09;;;;;;;24.27;13.50;;;4.00;29.00;;;;;;6286231;28;20253;-57
2022/01/29 06:00:14;;;;;;;19.13;11.87;;;4.00;29.80;;;;;;6282337;28;20383;-55
2022/01/29 06:03:17;;;;;;;25.10;12.80;;;4.10;30.30;;;;;;6281547;28;20295;-56
2022/01/29 06:06:20;;;;;;;20.23;12.37;;;3.90;30.50;;;;;;6286606;28;20244;-56
2022/01/29 06:09:23;;;;;;;22.83;11.93;;;4.20;31.10;;;;;;6282486;28;20458;-56
2022/01/29 06:12:25;;;;;;;21.23;11.77;;;4.30;31.20;;;;;;6283305;28;20394;-56
2022/01/29 06:15:30;;;;;;;21.53;12.73;;;3.80;30.60;;;;;;6283826;28;20249;-56
2022/01/29 06:18:33;;;;;;;18.33;11.70;;;4.20;30.90;;;;;;6283508;28;20245;-56
2022/01/29 06:21:36;;;;;;;17.90;12.63;;;3.90;30.70;;;;;;6282845;28;20245;-56
2022/01/29 06:24:39;;;;;;;19.13;12.83;;;4.00;31.70;;;;;;6283695;28;20245;-57
2022/01/29 06:27:41;;;;;;;20.93;12.63;;;4.20;31.70;;;;;;6281648;28;20233;-56
2022/01/29 06:30:45;;;;;;;22.03;12.57;;;3.90;32.00;;;;;;6285259;28;20731;-56
2022/01/29 06:33:48;;;;;;;23.00;13.50;;;4.00;32.80;;;;;;6283423;28;20741;-56
2022/01/29 06:36:51;;;;;;;24.20;13.43;;;3.90;33.00;;;;;;6281578;28;20517;-56
2022/01/29 06:39:54;;;;;;;29.00;13.90;;;3.90;32.80;;;;;;6282413;28;20233;-57
2022/01/29 06:42:57;;;;;;;21.53;13.90;;;4.20;33.40;;;;;;6281210;28;20235;-53
2022/01/29 06:46:01;;;;;;;16.47;12.97;;;4.00;33.20;;;;;;6282452;28;20411;-57
2022/01/29 06:49:04;;;;;;;18.53;12.97;;;4.20;34.00;;;;;;6281574;28;20230;-56
2022/01/29 06:52:07;;;;;;;17.87;12.50;;;3.90;33.60;;;;;;6281748;28;20272;-56
2022/01/29 06:55:10;;;;;;;22.70;14.03;;;4.30;34.10;;;;;;6281514;28;20264;-56
2022/01/29 06:58:12;;;;;;;17.40;13.07;;;4.00;34.30;;;;;;6278582;28;20238;-56
2022/01/29 07:01:37;;;;;;;20.53;13.37;;;4.10;34.50;;;;;;6274766;28;20375;-56
2022/01/29 07:04:40;;;;;;;17.70;13.80;;;4.40;34.90;;;;;;6283650;28;20234;-57
2022/01/29 07:07:43;;;;;;;20.53;13.67;;;4.20;34.20;;;;;;6278928;28;20237;-57
2022/01/29 07:10:46;;;;;;;17.77;12.97;;;4.10;34.70;;;;;;6271396;28;20293;-56
2022/01/29 07:13:49;;;;;;;22.97;14.17;;;3.90;35.40;;;;;;6280134;28;20736;-57
2022/01/29 07:16:53;;;;;;;24.93;14.90;;;4.00;35.60;;;;;;6280420;28;20704;-57
2022/01/29 07:19:56;;;;;;;25.03;14.80;;;4.10;35.70;;;;;;6282249;28;20278;-57
2022/01/29 07:22:59;;;;;;;21.67;14.50;;;4.30;35.90;;;;;;6278247;28;20306;-56
2022/01/29 07:26:02;;;;;;;18.33;14.47;;;4.30;36.00;;;;;;6283921;28;20282;-55
2022/01/29 07:29:04;;;;;;;21.00;13.87;;;4.40;36.30;;;;;;6285612;28;20229;-58
2022/01/29 07:32:09;;;;;;;23.43;14.50;;;4.20;35.60;;;;;;6279988;28;20532;-56
2022/01/29 07:35:12;;;;;;;24.67;15.60;;;4.30;36.80;;;;;;6281123;28;20312;-57
2022/01/29 07:38:15;;;;;;;19.73;14.27;;;4.20;36.80;;;;;;6281826;28;20241;-56
2022/01/29 07:41:18;;;;;;;21.03;14.97;;;4.60;36.70;;;;;;6279704;28;20314;-56
2022/01/29 07:44:21;;;;;;;20.27;14.00;;;4.30;36.30;;;;;;6279238;28;20262;-57
2022/01/29 07:47:25;;;;;;;18.03;14.07;;;4.30;36.70;;;;;;6278391;28;20312;-56
2022/01/29 07:50:28;;;;;;;18.43;15.07;;;4.30;36.60;;;;;;6280216;28;20766;-56
2022/01/29 07:53:31;;;;;;;18.83;14.77;;;4.50;36.90;;;;;;6279934;28;20237;-57
2022/01/29 07:56:34;;;;;;;18.03;14.80;;;4.50;36.70;;;;;;6281700;28;20272;-56
2022/01/29 07:59:37;;;;;;;22.20;14.67;;;4.40;36.70;;;;;;6266380;28;20229;-56
2022/01/29 08:02:41;;;;;;;15.90;14.07;;;4.50;36.40;;;;;;6279983;28;20548;-57
2022/01/29 08:05:44;;;;;;;23.93;15.43;;;4.40;36.80;;;;;;6275222;28;20286;-57
2022/01/29 08:08:54;;;;;;;17.07;15.17;;;4.70;37.00;;;;;;6280564;28;20668;-56
2022/01/29 08:11:57;;;;;;;19.30;13.80;;;4.50;37.00;;;;;;6279135;28;20349;-56
2022/01/29 08:15:00;;;;;;;20.13;13.93;;;4.60;37.20;;;;;;6283095;28;20256;-57
2022/01/29 08:18:05;;;;;;;22.83;14.60;;;4.60;37.20;;;;;;6280330;28;20272;-55
2022/01/29 08:21:07;;;;;;;17.93;14.10;;;4.60;36.60;;;;;;6282176;28;20233;-56
2022/01/29 08:24:10;;;;;;;16.67;14.43;;;4.70;37.10;;;;;;6281916;28;20580;-55
2022/01/29 08:27:13;;;;;;;22.33;15.27;;;4.80;37.80;;;;;;6278920;28;20233;-55
2022/01/29 08:30:16;;;;;;;19.17;14.33;;;4.50;38.00;;;;;;6281408;28;20229;-57
2022/01/29 08:33:20;;;;;;;18.57;14.70;;;4.70;37.90;;;;;;6281464;28;20502;-57
2022/01/29 08:36:23;;;;;;;17.90;14.10;;;4.70;38.10;;;;;;6276448;28;20234;-57
2022/01/29 08:39:26;;;;;;;17.57;14.07;;;4.70;37.90;;;;;;6264073;28;20237;-57
2022/01/29 08:42:28;;;;;;;20.50;14.90;;;4.80;38.10;;;;;;6283446;28;20613;-55
2022/01/29 08:45:31;;;;;;;16.13;14.30;;;4.70;38.30;;;;;;6280088;28;20311;-56
2022/01/29 08:48:35;;;;;;;19.10;14.33;;;4.50;38.30;;;;;;6280837;28;20259;-57
2022/01/29 08:51:38;;;;;;;17.43;15.47;;;4.80;38.60;;;;;;6283163;28;20233;-57
2022/01/29 08:54:41;;;;;;;18.03;15.27;;;4.80;38.60;;;;;;6268282;28;20233;-56
2022/01/29 08:57:45;;;;;;;19.87;15.90;;;4.70;39.40;;;;;;6275657;28;20321;-57
2022/01/29 09:00:48;;;;;;;20.20;15.93;;;5.00;39.00;;;;;;6280590;28;20320;-55
2022/01/29 09:03:52;;;;;;;19.43;15.83;;;4.90;38.90;;;;;;6282730;28;20724;-57
2022/01/29 09:06:55;;;;;;;19.67;15.83;;;4.90;38.90;;;;;;6285556;28;20315;-56
2022/01/29 09:09:58;;;;;;;22.27;16.27;;;4.90;38.80;;;;;;6283869;28;20277;-57
2022/01/29 09:13:01;;;;;;;22.47;16.33;;;4.70;38.30;;;;;;6271754;28;20311;-58
2022/01/29 09:16:04;;;;;;;21.77;16.30;;;4.90;38.50;;;;;;6276821;28;20785;-57
2022/01/29 09:19:08;;;;;;;21.77;16.07;;;5.00;39.20;;;;;;6282226;28;20310;-57
2022/01/29 09:22:11;;;;;;;20.63;16.67;;;4.90;38.90;;;;;;6283016;28;20336;-55
2022/01/29 09:25:14;;;;;;;21.67;16.23;;;5.20;39.00;;;;;;6284536;28;20749;-56
2022/01/29 09:28:17;;;;;;;23.87;17.40;;;4.90;38.60;;;;;;6283567;28;20311;-56
2022/01/29 09:31:20;;;;;;;21.37;17.33;;;5.20;39.20;;;;;;6281036;28;20362;-57
2022/01/29 09:34:24;;;;;;;23.47;16.57;;;5.20;39.20;;;;;;6284791;28;20887;-57
2022/01/29 09:37:26;;;;;;;24.90;17.07;;;5.40;39.40;;;;;;6283894;28;20236;-57
2022/01/29 09:40:32;;;;;;;19.17;15.73;;;5.30;39.40;;;;;;6284731;28;20387;-56
2022/01/29 09:43:35;;;;;;;20.37;16.20;;;5.20;39.50;;;;;;6281004;28;20287;-56
2022/01/29 09:46:40;;;;;;;25.90;16.40;;;5.20;39.90;;;;;;6285168;28;20784;-59
2022/01/29 09:49:45;;;;;;;22.43;17.47;;;5.30;40.30;;;;;;6284498;28;20233;-56
2022/01/29 09:52:48;;;;;;;24.03;17.47;;;5.30;40.30;;;;;;6283535;28;20725;-56
2022/01/29 09:55:51;;;;;;;24.80;17.87;;;5.70;40.50;;;;;;6284412;28;20319;-57
2022/01/29 09:58:54;;;;;;;25.30;18.20;;;5.60;40.40;;;;;;6282446;28;20236;-57
2022/01/29 10:01:56;;;;;;;22.20;17.03;;;4.90;39.90;;;;;;6282691;28;20430;-57
2022/01/29 10:05:01;;;;;;;28.50;19.87;;;5.50;40.50;;;;;;6282350;28;20282;-57
2022/01/29 10:08:05;;;;;;;24.50;18.37;;;5.70;40.60;;;;;;6281018;28;20702;-56
2022/01/29 10:11:19;;;;;;;23.20;19.00;;;5.60;40.60;;;;;;6290685;28;20416;-57
2022/01/29 10:14:22;;;;;;;26.80;20.37;;;5.80;40.80;;;;;;6271966;28;20309;-57
2022/01/29 10:17:42;;;;;;;29.97;20.37;;;5.80;40.80;;;;;;6272235;28;20257;-56
2022/01/29 10:20:46;;;;;;;31.03;20.17;;;5.70;40.60;;;;;;6281687;28;20321;-57
2022/01/29 10:23:49;;;;;;;25.23;20.23;;;5.70;40.60;;;;;;6282618;28;20379;-57
2022/01/29 10:26:52;;;;;;;26.67;20.57;;;5.90;40.80;;;;;;6283422;28;20363;-56
2022/01/29 10:29:59;;;;;;;32.73;21.20;;;6.00;41.00;;;;;;6282626;28;20261;-57
2022/01/29 10:33:17;;;;;;;31.33;21.13;;;6.20;41.20;;;;;;6279161;28;20237;-57
2022/01/29 10:36:22;;;;;;;29.93;21.87;;;5.90;40.80;;;;;;6283076;28;20321;-57
2022/01/29 10:39:30;;;;;;;28.07;20.60;;;6.30;41.20;;;;;;6278482;28;20220;-57
2022/01/29 10:42:38;;;;;;;30.13;21.23;;;6.10;41.00;;;;;;6285326;28;20439;-56
2022/01/29 10:45:41;;;;;;;27.90;20.00;;;6.20;41.10;;;;;;6283954;28;20732;-57
2022/01/29 10:48:44;;;;;;;28.17;21.40;;;6.30;41.20;;;;;;6283248;28;20241;-56
2022/01/29 10:52:03;;;;;;;25.00;20.10;;;6.30;41.20;;;;;;6281035;28;20252;-56
2022/01/29 10:55:07;;;;;;;26.87;20.53;;;6.50;41.40;;;;;;6288785;28;20264;-56
2022/01/29 10:58:20;;;;;;;30.60;20.13;;;6.50;41.40;;;;;;6283197;28;20234;-57
2022/01/29 11:01:23;;;;;;;21.73;18.87;;;6.30;41.20;;;;;;6277778;28;20225;-58
2022/01/29 11:04:29;;;;;;;26.53;20.10;;;6.60;41.40;;;;;;6283626;28;20290;-58
2022/01/29 11:07:35;;;;;;;24.07;19.03;;;6.60;41.40;;;;;;6282991;28;20697;-58
2022/01/29 11:10:38;;;;;;;22.20;19.83;;;6.50;41.40;;;;;;6281935;28;20515;-55
2022/01/29 11:13:50;;;;;;;23.73;19.37;;;6.60;41.40;;;;;;6283346;28;20842;-56
2022/01/29 11:16:54;;;;;;;23.13;18.50;;;6.70;41.60;;;;;;6282356;28;20244;-61
2022/01/29 11:19:57;;;;;;;20.17;17.97;;;6.70;41.50;;;;;;6281549;28;20260;-57
2022/01/29 11:23:01;;;;;;;19.30;16.43;;;6.70;41.60;;;;;;6273943;28;20378;-58
2022/01/29 11:26:04;;;;;;;18.47;16.57;;;6.90;41.70;;;;;;6282722;28;20384;-56
2022/01/29 11:29:24;;;;;;;17.20;15.50;;;6.90;41.70;;;;;;6278672;28;20324;-58
2022/01/29 11:32:33;;;;;;;16.60;14.97;;;7.00;41.70;;;;;;6279181;28;20240;-56
2022/01/29 11:35:51;;;;;;;20.33;15.47;;;6.80;41.20;;;;;;6282785;28;20269;-57
2022/01/29 11:39:23;;;;;;;15.90;14.30;;;7.10;41.70;;;;;;6275212;28;20241;-54
2022/01/29 11:42:30;;;;;;;15.77;14.17;;;7.20;40.90;;;;;;6266004;28;20239;-55
2022/01/29 11:45:44;;;;;;;16.87;15.17;;;7.20;40.80;;;;;;6281932;28;20226;-57
2022/01/29 11:48:52;;;;;;;18.30;14.93;;;7.20;40.50;;;;;;6282051;28;20571;-57
2022/01/29 11:51:56;;;;;;;17.40;14.27;;;7.20;40.50;;;;;;6280880;28;20237;-57
2022/01/29 11:55:04;;;;;;;16.30;14.60;;;7.20;40.50;;;;;;6282564;28;20358;-58
2022/01/29 11:58:26;;;;;;;15.77;14.10;;;7.30;40.50;;;;;;6273679;28;20240;-50
2022/01/29 12:01:31;;;;;;;16.17;14.53;;;7.30;39.30;;;;;;6278328;28;20273;-57
2022/01/29 12:05:04;;;;;;;15.40;13.90;;;7.30;39.70;;;;;;6281004;28;20237;-57
2022/01/29 12:08:16;;;;;;;15.30;13.67;;;7.40;39.40;;;;;;6265945;28;20323;-58
2022/01/29 12:11:20;;;;;;;14.60;13.10;;;7.40;39.30;;;;;;6277181;28;20763;-57
2022/01/29 12:14:26;;;;;;;13.80;12.50;;;7.50;39.40;;;;;;6281304;28;20601;-57
2022/01/29 12:17:43;;;;;;;13.83;12.43;;;7.50;38.90;;;;;;6279281;28;20237;-58
2022/01/29 12:20:46;;;;;;;12.93;11.87;;;7.50;38.90;;;;;;6280617;28;20290;-58
2022/01/29 12:23:51;;;;;;;13.03;11.80;;;7.60;38.50;;;;;;6275251;28;20295;-57
2022/01/29 12:26:55;;;;;;;12.90;11.77;;;7.60;38.20;;;;;;6281063;28;20388;-58
2022/01/29 12:29:58;;;;;;;12.93;11.57;;;7.70;37.70;;;;;;6271926;28;20225;-56
2022/01/29 12:33:03;;;;;;;12.13;10.93;;;7.70;37.70;;;;;;6279523;28;20261;-52
2022/01/29 12:36:07;;;;;;;12.40;11.27;;;8.00;37.00;;;;;;6281445;28;20233;-58
2022/01/29 12:39:10;;;;;;;12.57;11.43;;;7.70;36.60;;;;;;6277943;28;20719;-58
2022/01/29 12:42:27;;;;;;;11.67;10.60;;;7.70;37.00;;;;;;6275855;28;20323;-59
2022/01/29 12:45:31;;;;;;;11.50;10.40;;;7.80;36.50;;;;;;6277083;28;20234;-57
2022/01/29 12:48:34;;;;;;;11.37;9.80;;;7.80;36.40;;;;;;6279396;28;20241;-56
2022/01/29 12:51:50;;;;;;;11.53;10.53;;;7.80;36.10;;;;;;6281394;28;20254;-57
2022/01/29 12:54:54;;;;;;;11.80;10.70;;;7.90;35.10;;;;;;6280760;28;20230;-56
2022/01/29 12:57:58;;;;;;;11.83;10.20;;;7.90;34.90;;;;;;6273822;28;20326;-56
2022/01/29 13:01:06;;;;;;;10.60;9.70;;;7.90;34.00;;;;;;6277414;28;20242;-57
2022/01/29 13:04:12;;;;;;;10.67;9.57;;;8.00;33.10;;;;;;6281752;28;20237;-57
2022/01/29 13:07:18;;;;;;;10.63;9.73;;;8.00;31.70;;;;;;6274669;28;20286;-58
2022/01/29 13:10:21;;;;;;;9.43;8.70;;;8.10;32.10;;;;;;6281380;28;20236;-56
2022/01/29 13:13:29;;;;;;;9.33;8.50;;;8.10;29.90;;;;;;6276358;28;20234;-57
2022/01/29 13:16:32;;;;;;;9.37;8.43;;;8.20;29.80;;;;;;6267928;28;20302;-59
2022/01/29 13:19:37;;;;;;;9.20;8.33;;;8.30;28.90;;;;;;6279706;28;20343;-59
2022/01/29 13:22:42;;;;;;;8.77;7.53;;;8.30;28.40;;;;;;6277854;28;20233;-58
2022/01/29 13:25:45;;;;;;;8.43;7.80;;;8.40;27.00;;;;;;6278422;28;20702;-59
2022/01/29 13:28:59;;;;;;;8.13;7.53;;;8.40;25.20;;;;;;6282172;28;20240;-59
2022/01/29 13:32:02;;;;;;;7.43;6.93;;;8.50;25.20;;;;;;6279715;28;20486;-58
2022/01/29 13:35:16;;;;;;;7.03;6.67;;;8.60;23.40;;;;;;6281231;28;20241;-57
2022/01/29 13:38:23;;;;;;;7.03;6.63;;;8.60;21.30;;;;;;6286055;28;20302;-57
2022/01/29 13:41:26;;;;;;;8.10;7.37;;;8.70;21.40;;;;;;6284981;28;20225;-57
2022/01/29 13:44:30;;;;;;;6.90;6.53;;;8.70;21.40;;;;;;6283624;28;20323;-57
2022/01/29 13:47:34;;;;;;;7.20;6.70;;;8.70;20.20;;;;;;6283335;28;20263;-58
2022/01/29 13:50:38;;;;;;;6.40;5.97;;;8.80;19.20;;;;;;6286317;28;20597;-57
2022/01/29 13:53:44;;;;;;;6.47;6.03;;;8.80;19.10;;;;;;6285294;28;20286;-58
2022/01/29 13:56:48;;;;;;;6.13;5.83;;;8.80;19.30;;;;;;6285752;28;20385;-57
2022/01/29 14:00:02;;;;;;;5.97;5.47;;;8.80;19.60;;;;;;6287044;28;20230;-59
2022/01/29 14:03:04;;;;;;;5.27;5.03;;;8.90;18.00;;;;;;6285157;28;20232;-56
2022/01/29 14:06:37;;;;;;;4.90;4.80;;;9.00;17.60;;;;;;6284646;28;20254;-58
2022/01/29 14:09:43;;;;;;;4.83;4.73;;;9.00;17.40;;;;;;6236184;28;20781;-57
2022/01/29 14:12:48;;;;;;;4.63;4.53;;;9.10;17.70;;;;;;6281061;28;20652;-57
2022/01/29 14:15:52;;;;;;;4.43;4.33;;;9.10;17.80;;;;;;6278847;28;20662;-57
2022/01/29 14:18:55;;;;;;;4.57;4.47;;;9.10;16.70;;;;;;6282015;28;20252;-57
2022/01/29 14:21:59;;;;;;;4.60;4.47;;;9.10;17.50;;;;;;6278356;28;20324;-57
2022/01/29 14:25:04;;;;;;;3.70;3.70;;;9.10;17.70;;;;;;6281646;28;20300;-58
2022/01/29 14:28:08;;;;;;;4.10;4.00;;;9.10;17.80;;;;;;6281366;28;20299;-59
2022/01/29 14:31:12;;;;;;;4.00;3.90;;;9.10;18.70;;;;;;6282498;28;20249;-58
2022/01/29 14:34:15;;;;;;;4.13;3.97;;;9.10;19.80;;;;;;6281280;28;20252;-58
2022/01/29 14:37:19;;;;;;;3.73;3.73;;;9.20;20.30;;;;;;6278668;28;20230;-59
2022/01/29 14:40:22;;;;;;;4.40;4.00;;;9.10;20.60;;;;;;6284708;28;20282;-58
2022/01/29 14:43:24;;;;;;;3.57;3.50;;;9.10;21.70;;;;;;6279103;28;20484;-58
2022/01/29 14:46:28;;;;;;;4.30;4.10;;;9.10;22.60;;;;;;6283356;28;20240;-57
2022/01/29 14:49:31;;;;;;;4.27;4.07;;;9.10;24.60;;;;;;6284141;28;20617;-59
2022/01/29 14:52:34;;;;;;;4.30;4.00;;;9.00;25.70;;;;;;6284106;28;20427;-57
2022/01/29 14:55:37;;;;;;;4.23;4.13;;;9.00;28.30;;;;;;6284764;28;20745;-59
2022/01/29 14:58:40;;;;;;;4.37;4.27;;;8.90;29.20;;;;;;6282563;28;20233;-57
2022/01/29 15:01:44;;;;;;;4.43;4.33;;;8.90;31.40;;;;;;6282735;28;20623;-58
2022/01/29 15:04:51;;;;;;;4.47;4.27;;;8.80;32.90;;;;;;6283657;28;20486;-57
2022/01/29 15:07:54;;;;;;;4.83;4.63;;;8.70;33.70;;;;;;6283577;28;20233;-58
2022/01/29 15:10:59;;;;;;;4.37;4.23;;;8.80;33.50;;;;;;6277472;28;20359;-58
2022/01/29 15:14:22;;;;;;;4.67;4.57;;;8.80;32.20;;;;;;6277314;28;20236;-58
2022/01/29 15:17:26;;;;;;;4.17;4.07;;;8.80;31.10;;;;;;6277185;28;20546;-58
2022/01/29 15:20:29;;;;;;;4.70;4.60;;;8.80;31.60;;;;;;6283293;28;20399;-56
2022/01/29 15:23:32;;;;;;;5.20;5.00;;;8.90;31.20;;;;;;6277634;28;20251;-59
2022/01/29 15:26:35;;;;;;;4.93;4.63;;;8.80;30.30;;;;;;6281481;28;20316;-59
2022/01/29 15:29:38;;;;;;;5.00;4.60;;;8.90;29.30;;;;;;6282767;28;20247;-57
2022/01/29 15:32:45;;;;;;;5.30;5.00;;;8.90;28.00;;;;;;6281862;28;20337;-57
2022/01/29 15:35:48;;;;;;;5.07;4.87;;;9.00;26.70;;;;;;6278838;28;20398;-58
2022/01/29 15:38:51;;;;;;;5.13;4.93;;;9.00;27.30;;;;;;6279194;28;20241;-56
2022/01/29 15:41:54;;;;;;;5.10;5.00;;;9.00;26.60;;;;;;6279464;28;20233;-59
2022/01/29 15:44:57;;;;;;;5.10;4.90;;;9.00;26.90;;;;;;6272776;28;20229;-57
2022/01/29 15:48:01;;;;;;;4.97;4.80;;;9.00;27.10;;;;;;6280483;28;20697;-57
2022/01/29 15:51:04;;;;;;;5.13;4.93;;;9.00;26.20;;;;;;6272123;28;20317;-58
2022/01/29 15:54:07;;;;;;;5.17;5.00;;;9.10;25.60;;;;;;6279345;28;20313;-58
2022/01/29 15:57:10;;;;;;;5.50;5.30;;;9.10;24.60;;;;;;6279579;28;20238;-57
2022/01/29 16:00:21;;;;;;;5.40;5.10;;;9.20;24.30;;;;;;6281357;28;20710;-58
2022/01/29 16:03:26;;;;;;;5.80;5.50;;;9.20;22.70;;;;;;6281562;28;20317;-56
2022/01/29 16:06:28;;;;;;;5.67;5.47;;;9.20;21.30;;;;;;6263067;28;20308;-57
2022/01/29 16:09:31;;;;;;;5.40;5.20;;;9.20;20.30;;;;;;6268854;28;20604;-58